createdAt,value
2019-02-18T00:01:03.395Z,10.20
2019-02-18T00:03:33.469Z,9.53
2019-02-18T00:06:02.965Z,9.70
2019-02-18T00:08:32.340Z,14.77
2019-02-18T00:11:02.133Z,23.10
2019-02-18T00:13:31.593Z,25.53
2019-02-18T00:16:02.160Z,23.10
2019-02-18T00:18:32.215Z,22.00
2019-02-18T00:21:01.603Z,22.03
2019-02-18T00:23:31.005Z,21.63
2019-02-18T00:26:02.507Z,17.63
2019-02-18T00:28:36.820Z,17.93
2019-02-18T00:31:06.047Z,15.13
2019-02-18T00:33:35.774Z,11.37
2019-02-18T00:36:05.835Z,14.55
2019-02-18T00:38:35.205Z,14.63
2019-02-18T00:41:05.141Z,12.33
2019-02-18T00:43:34.881Z,12.40
2019-02-18T00:46:04.589Z,11.57
2019-02-18T00:48:34.012Z,11.43
2019-02-18T00:51:04.011Z,11.43
2019-02-18T00:53:38.504Z,11.73
2019-02-18T00:56:08.226Z,10.73
2019-02-18T00:58:37.949Z,12.33
2019-02-18T01:01:07.847Z,10.77
2019-02-18T01:03:39.740Z,10.53
2019-02-18T01:06:09.113Z,10.43
2019-02-18T01:08:38.492Z,10.10
2019-02-18T01:11:08.266Z,11.43
2019-02-18T01:13:38.029Z,10.37
2019-02-18T01:16:07.433Z,10.70
2019-02-18T01:18:37.323Z,10.37
2019-02-18T01:21:06.701Z,11.03
2019-02-18T01:23:36.432Z,10.98
2019-02-18T01:26:05.853Z,10.20
2019-02-18T01:28:35.860Z,10.88
2019-02-18T01:31:05.233Z,9.63
2019-02-18T01:33:35.903Z,10.03
2019-02-18T01:36:06.246Z,9.90
2019-02-18T01:38:36.744Z,10.33
2019-02-18T01:41:06.746Z,10.08
2019-02-18T01:43:36.402Z,10.60
2019-02-18T01:46:06.267Z,10.37
2019-02-18T01:48:36.006Z,9.90
2019-02-18T01:51:05.730Z,9.83
2019-02-18T01:53:37.992Z,8.83
2019-02-18T01:56:09.322Z,9.00
2019-02-18T01:58:40.491Z,9.20
2019-02-18T02:01:09.878Z,9.27
2019-02-18T02:03:39.681Z,8.97
2019-02-18T02:06:09.126Z,9.83
2019-02-18T02:08:38.692Z,10.40
2019-02-18T02:11:10.130Z,8.48
2019-02-18T02:13:40.648Z,10.00
2019-02-18T02:16:12.223Z,10.23
2019-02-18T02:18:41.985Z,9.33
2019-02-18T02:21:11.871Z,8.87
2019-02-18T02:23:43.070Z,10.30
2019-02-18T02:26:13.053Z,8.73
2019-02-18T02:28:43.621Z,8.93
2019-02-18T02:31:16.221Z,8.30
2019-02-18T02:33:46.032Z,9.13
2019-02-18T02:36:17.512Z,8.98
2019-02-18T02:38:49.990Z,9.43
2019-02-18T02:41:20.153Z,9.90
2019-02-18T02:43:50.423Z,9.20
2019-02-18T02:46:20.155Z,10.00
2019-02-18T02:48:50.313Z,9.40
2019-02-18T02:51:20.193Z,9.90
2019-02-18T02:53:49.565Z,8.27
2019-02-18T02:56:18.990Z,9.93
2019-02-18T02:58:48.519Z,9.13
2019-02-18T03:01:20.629Z,9.23
2019-02-18T03:03:50.039Z,9.13
2019-02-18T03:06:19.922Z,9.53
2019-02-18T03:08:49.479Z,9.50
2019-02-18T03:11:20.935Z,9.20
2019-02-18T03:13:51.129Z,9.50
2019-02-18T03:16:21.239Z,8.67
2019-02-18T03:18:51.619Z,9.00
2019-02-18T03:21:21.010Z,8.97
2019-02-18T03:23:50.671Z,9.60
2019-02-18T03:26:20.685Z,9.73
2019-02-18T03:29:32.503Z,8.85
2019-02-18T03:32:02.337Z,9.57
2019-02-18T03:34:37.636Z,9.07
2019-02-18T03:37:09.279Z,8.23
2019-02-18T03:39:39.234Z,8.70
2019-02-18T03:42:12.445Z,7.87
2019-02-18T03:44:42.333Z,7.73
2019-02-18T03:47:14.802Z,8.80
2019-02-18T03:49:43.822Z,9.30
2019-02-18T03:52:13.713Z,8.90
2019-02-18T03:54:43.100Z,8.50
2019-02-18T03:57:14.596Z,8.23
2019-02-18T03:59:45.086Z,6.93
2019-02-18T04:02:18.381Z,7.40
2019-02-18T04:04:51.821Z,6.90
2019-02-18T04:07:24.642Z,7.28
2019-02-18T04:09:54.083Z,7.70
2019-02-18T04:12:25.423Z,10.17
2019-02-18T04:14:54.948Z,9.57
2019-02-18T04:17:27.575Z,8.90
2019-02-18T04:19:56.922Z,8.77
2019-02-18T04:22:26.296Z,5.10
2019-02-18T04:24:59.709Z,5.47
2019-02-18T04:27:29.457Z,6.50
2019-02-18T04:29:58.874Z,6.83
2019-02-18T04:32:29.911Z,5.95
2019-02-18T04:34:59.524Z,5.63
2019-02-18T04:37:29.869Z,6.53
2019-02-18T04:39:59.913Z,6.27
2019-02-18T04:42:32.097Z,6.53
2019-02-18T04:45:02.913Z,6.07
2019-02-18T04:47:33.373Z,7.10
2019-02-18T04:50:02.806Z,6.10
2019-02-18T04:52:32.184Z,5.75
2019-02-18T04:55:02.843Z,6.00
2019-02-18T04:57:32.474Z,6.87
2019-02-18T05:00:02.010Z,10.97
2019-02-18T05:02:31.422Z,11.80
2019-02-18T05:05:00.955Z,9.87
2019-02-18T05:07:30.352Z,11.28
2019-02-18T05:10:00.423Z,27.37
2019-02-18T05:12:30.219Z,28.55
2019-02-18T05:14:59.609Z,15.40
2019-02-18T05:17:30.252Z,7.80
2019-02-18T05:19:59.666Z,6.93
2019-02-18T05:22:30.745Z,8.18
2019-02-18T05:25:00.377Z,9.38
2019-02-18T05:27:33.279Z,14.13
2019-02-18T05:30:01.030Z,11.80
2019-02-18T05:32:31.338Z,9.07
2019-02-18T05:35:01.032Z,7.60
2019-02-18T05:37:30.427Z,5.65
2019-02-18T05:40:01.102Z,5.10
2019-02-18T05:42:30.556Z,7.70
2019-02-18T05:45:00.454Z,6.33
2019-02-18T05:47:29.883Z,7.10
2019-02-18T05:49:59.269Z,6.03
2019-02-18T05:52:29.991Z,5.57
2019-02-18T05:54:59.829Z,5.60
2019-02-18T05:57:29.278Z,5.30
2019-02-18T05:59:58.713Z,5.10
2019-02-18T06:02:29.345Z,4.80
2019-02-18T06:04:58.720Z,5.10
2019-02-18T06:07:30.201Z,4.53
2019-02-18T06:09:59.624Z,5.83
2019-02-18T06:12:29.029Z,5.90
2019-02-18T06:14:59.173Z,6.70
2019-02-18T06:17:29.060Z,7.90
2019-02-18T06:19:58.452Z,7.50
2019-02-18T06:22:27.849Z,8.30
2019-02-18T06:24:57.279Z,9.40
2019-02-18T06:27:26.904Z,8.67
2019-02-18T06:29:56.707Z,9.00
2019-02-18T06:32:26.816Z,7.30
2019-02-18T06:34:56.336Z,7.30
2019-02-18T06:37:25.733Z,6.50
2019-02-18T06:39:56.698Z,7.35
2019-02-18T06:42:26.224Z,7.83
2019-02-18T06:45:04.689Z,8.17
2019-02-18T06:47:34.785Z,8.65
2019-02-18T06:50:05.147Z,8.10
2019-02-18T06:52:34.502Z,7.25
2019-02-18T06:55:04.500Z,7.67
2019-02-18T06:57:53.185Z,6.90
2019-02-18T07:00:26.681Z,7.85
2019-02-18T07:03:18.492Z,9.93
2019-02-18T07:05:55.839Z,16.73
2019-02-18T07:08:56.242Z,17.17
2019-02-18T07:11:39.413Z,10.10
2019-02-18T07:14:10.798Z,8.57
2019-02-18T07:16:40.276Z,9.50
2019-02-18T07:19:10.396Z,8.87
2019-02-18T07:21:40.147Z,8.83
2019-02-18T07:24:09.517Z,7.93
2019-02-18T07:26:38.965Z,8.27
2019-02-18T07:29:08.347Z,10.53
2019-02-18T07:31:37.728Z,9.97
2019-02-18T07:34:07.508Z,9.65
2019-02-18T07:36:37.387Z,8.90
2019-02-18T07:39:08.851Z,8.53
2019-02-18T07:41:38.553Z,7.83
2019-02-18T07:44:07.928Z,9.50
2019-02-18T07:46:37.313Z,7.87
2019-02-18T07:49:06.716Z,8.03
2019-02-18T07:51:36.585Z,8.73
2019-02-18T07:54:06.272Z,8.40
2019-02-18T07:56:36.383Z,7.83
2019-02-18T07:59:05.778Z,8.13
2019-02-18T08:01:35.154Z,6.87
2019-02-18T08:04:04.551Z,6.80
2019-02-18T08:06:34.548Z,7.90
2019-02-18T08:09:06.014Z,6.23
2019-02-18T08:11:35.517Z,7.53
2019-02-18T08:14:04.896Z,6.67
2019-02-18T08:16:34.297Z,6.42
2019-02-18T08:19:04.306Z,6.73
2019-02-18T08:21:34.247Z,7.93
2019-02-18T08:24:04.000Z,7.70
2019-02-18T08:26:33.415Z,7.03
2019-02-18T08:29:02.809Z,8.03
2019-02-18T08:31:32.249Z,9.70
2019-02-18T08:34:01.650Z,8.37
2019-02-18T08:36:31.032Z,7.40
2019-02-18T08:39:00.417Z,8.00
2019-02-18T08:41:30.540Z,6.08
2019-02-18T08:44:00.637Z,8.30
2019-02-18T08:46:30.081Z,5.92
2019-02-18T08:48:59.624Z,5.80
2019-02-18T08:51:29.783Z,5.80
2019-02-18T08:54:00.114Z,6.00
2019-02-18T08:56:30.651Z,6.00
2019-02-18T08:59:00.115Z,5.30
2019-02-18T09:01:30.154Z,5.70
2019-02-18T09:03:59.665Z,6.10
2019-02-18T09:06:29.402Z,6.30
2019-02-18T09:08:59.017Z,5.60
2019-02-18T09:11:29.627Z,4.90
2019-02-18T09:13:58.950Z,4.63
2019-02-18T09:16:29.320Z,4.30
2019-02-18T09:19:00.039Z,4.87
2019-02-18T09:21:32.346Z,4.33
2019-02-18T09:24:24.275Z,4.33
2019-02-18T09:26:53.689Z,4.40
2019-02-18T09:29:23.687Z,4.40
2019-02-18T09:31:53.477Z,4.60
2019-02-18T09:34:23.693Z,4.33
2019-02-18T09:36:56.554Z,4.03
2019-02-18T09:39:31.442Z,4.60
2019-02-18T09:42:03.857Z,4.23
2019-02-18T09:44:34.410Z,3.63
2019-02-18T09:47:06.524Z,3.60
2019-02-18T09:49:35.983Z,3.70
2019-02-18T09:52:07.524Z,3.80
2019-02-18T09:54:37.505Z,3.60
2019-02-18T09:57:07.605Z,3.53
2019-02-18T09:59:37.234Z,4.00
2019-02-18T10:02:06.755Z,2.90
2019-02-18T10:04:39.806Z,3.37
2019-02-18T10:07:11.910Z,3.60
2019-02-18T10:09:49.005Z,3.33
2019-02-18T10:12:19.171Z,3.47
2019-02-18T10:14:48.844Z,3.60
2019-02-18T10:17:18.873Z,3.30
2019-02-18T10:19:48.298Z,3.37
2019-02-18T10:22:18.825Z,3.23
2019-02-18T10:27:19.770Z,4.00
2019-02-18T10:29:49.791Z,3.20
2019-02-18T10:32:19.965Z,3.37
2019-02-18T10:34:50.570Z,3.53
2019-02-18T10:37:20.201Z,3.70
2019-02-18T10:39:50.474Z,3.57
2019-02-18T10:42:19.869Z,3.90
2019-02-18T10:44:49.329Z,4.97
2019-02-18T10:47:19.057Z,6.83
2019-02-18T10:49:53.103Z,6.60
2019-02-18T10:52:24.507Z,6.77
2019-02-18T10:54:55.080Z,6.80
2019-02-18T10:57:24.718Z,7.20
2019-02-18T10:59:54.449Z,7.80
2019-02-18T11:02:31.583Z,9.10
2019-02-18T11:05:01.692Z,9.07
2019-02-18T11:07:32.108Z,8.38
2019-02-18T11:10:02.779Z,7.73
2019-02-18T11:12:38.556Z,7.90
2019-02-18T11:15:09.471Z,7.97
2019-02-18T11:17:40.630Z,7.93
2019-02-18T11:20:10.843Z,7.30
2019-02-18T11:22:41.254Z,7.00
2019-02-18T11:25:11.700Z,7.23
2019-02-18T11:27:41.907Z,7.28
2019-02-18T11:30:15.865Z,6.92
2019-02-18T11:32:46.647Z,5.70
2019-02-18T11:35:18.029Z,6.12
2019-02-18T11:37:52.013Z,6.07
2019-02-18T11:40:22.611Z,5.23
2019-02-18T11:42:53.229Z,6.57
2019-02-18T11:45:23.618Z,5.33
2019-02-18T11:47:53.045Z,4.90
2019-02-18T11:50:22.657Z,4.13
2019-02-18T11:52:53.139Z,4.40
2019-02-18T11:55:22.558Z,4.13
2019-02-18T11:57:52.142Z,3.07
2019-02-18T12:00:21.998Z,3.92
2019-02-18T12:02:51.811Z,3.70
2019-02-18T12:05:22.574Z,3.75
2019-02-18T12:07:52.068Z,3.70
2019-02-18T12:10:24.931Z,4.67
2019-02-18T12:12:55.905Z,3.80
2019-02-18T12:15:26.248Z,3.87
2019-02-18T12:17:56.485Z,3.80
2019-02-18T12:20:26.522Z,4.35
2019-02-18T12:22:56.316Z,4.50
2019-02-18T12:25:26.076Z,4.80
2019-02-18T12:27:57.474Z,4.80
2019-02-18T12:30:27.648Z,5.25
2019-02-18T12:32:58.324Z,5.45
2019-02-18T12:35:31.655Z,5.53
2019-02-18T12:38:02.185Z,4.73
2019-02-18T12:40:32.010Z,5.13
2019-02-18T12:43:02.259Z,5.13
2019-02-18T12:45:32.986Z,5.17
2019-02-18T12:48:03.230Z,5.10
2019-02-18T12:50:33.180Z,5.20
2019-02-18T12:53:02.986Z,5.23
2019-02-18T12:55:33.307Z,4.93
2019-02-18T12:58:02.875Z,4.80
2019-02-18T13:00:32.435Z,5.08
2019-02-18T13:03:02.638Z,5.20
2019-02-18T13:05:32.312Z,5.15
2019-02-18T13:08:03.263Z,4.60
2019-02-18T13:10:34.907Z,4.47
2019-02-18T13:13:04.876Z,4.57
2019-02-18T13:15:34.341Z,4.70
2019-02-18T13:20:34.760Z,4.60
2019-02-18T13:23:04.212Z,4.73
2019-02-18T13:25:33.843Z,4.33
2019-02-18T13:28:08.443Z,4.10
2019-02-18T13:30:35.589Z,4.70
2019-02-18T13:33:05.796Z,4.07
2019-02-18T13:35:36.827Z,4.33
2019-02-18T13:38:07.229Z,4.33
2019-02-18T13:40:36.946Z,4.30
2019-02-18T13:43:06.336Z,4.20
2019-02-18T13:45:37.643Z,3.70
2019-02-18T13:48:07.706Z,4.20
2019-02-18T13:50:38.353Z,4.15
2019-02-18T13:53:08.052Z,4.10
2019-02-18T13:55:39.088Z,4.00
2019-02-18T13:58:09.137Z,3.87
2019-02-18T14:00:39.927Z,4.20
2019-02-18T14:03:10.045Z,5.13
2019-02-18T14:05:39.525Z,4.40
2019-02-18T14:08:10.766Z,4.70
2019-02-18T14:10:40.653Z,4.90
2019-02-18T14:13:12.379Z,5.13
2019-02-18T14:15:41.817Z,5.17
2019-02-18T14:18:16.052Z,4.80
2019-02-18T14:20:46.170Z,5.60
2019-02-18T14:23:21.375Z,5.00
2019-02-18T14:25:51.039Z,5.23
2019-02-18T14:28:21.493Z,5.80
2019-02-18T14:30:51.763Z,5.60
2019-02-18T14:33:22.217Z,5.87
2019-02-18T14:35:54.750Z,6.80
2019-02-18T14:38:30.259Z,6.22
2019-02-18T14:41:02.812Z,5.70
2019-02-18T14:43:34.231Z,7.50
2019-02-18T14:46:03.821Z,8.03
2019-02-18T14:48:33.681Z,7.97
2019-02-18T14:51:03.518Z,8.10
2019-02-18T14:53:33.392Z,8.93
2019-02-18T14:56:03.629Z,9.27
2019-02-18T14:58:33.819Z,9.13
2019-02-18T15:01:03.585Z,9.13
2019-02-18T15:03:33.140Z,9.40
2019-02-18T15:06:03.108Z,10.27
2019-02-18T15:08:33.090Z,9.68
2019-02-18T15:11:05.698Z,9.70
2019-02-18T15:13:35.177Z,9.60
2019-02-18T15:16:04.910Z,10.23
2019-02-18T15:18:34.336Z,10.03
2019-02-18T15:21:04.165Z,10.90
2019-02-18T15:23:35.002Z,11.40
2019-02-18T15:26:05.992Z,11.10
2019-02-18T15:28:36.722Z,11.50
2019-02-18T15:31:06.669Z,12.03
2019-02-18T15:33:36.388Z,12.05
2019-02-18T15:36:05.890Z,12.10
2019-02-18T15:38:35.298Z,12.58
2019-02-18T15:41:04.713Z,12.83
2019-02-18T15:43:34.472Z,13.18
2019-02-18T15:46:03.875Z,13.63
2019-02-18T15:48:33.960Z,14.53
2019-02-18T15:51:04.368Z,14.70
2019-02-18T15:53:33.739Z,14.50
2019-02-18T15:56:03.145Z,14.20
2019-02-18T15:58:33.433Z,14.00
2019-02-18T16:01:05.317Z,13.50
2019-02-18T16:03:35.834Z,14.18
2019-02-18T16:06:05.737Z,13.30
2019-02-18T16:08:38.646Z,14.93
2019-02-18T16:11:11.472Z,14.53
2019-02-18T16:13:44.275Z,13.83
2019-02-18T16:16:14.779Z,15.20
2019-02-18T16:18:44.764Z,17.07
2019-02-18T16:21:15.807Z,15.20
2019-02-18T16:23:47.908Z,15.90
2019-02-18T16:26:22.015Z,15.73
2019-02-18T16:28:52.423Z,14.97
2019-02-18T16:31:23.608Z,15.84
2019-02-18T16:33:53.962Z,15.33
2019-02-18T16:36:25.261Z,15.60
2019-02-18T16:38:56.036Z,15.63
2019-02-18T16:41:28.564Z,15.50
2019-02-18T16:43:58.592Z,14.57
2019-02-18T16:46:29.161Z,16.00
2019-02-18T16:48:59.896Z,15.53
2019-02-18T16:51:29.985Z,15.50
2019-02-18T16:54:00.286Z,15.90
2019-02-18T16:56:29.856Z,15.77
2019-02-18T16:59:00.494Z,17.23
2019-02-18T17:01:32.155Z,16.00
2019-02-18T17:04:01.676Z,17.80
2019-02-18T17:06:32.588Z,18.37
2019-02-18T17:09:02.304Z,19.13
2019-02-18T17:11:32.724Z,18.80
2019-02-18T17:14:02.700Z,18.82
2019-02-18T17:16:33.097Z,22.60
2019-02-18T17:19:03.075Z,23.50
2019-02-18T17:21:32.774Z,24.83
2019-02-18T17:24:02.252Z,23.20
2019-02-18T17:26:32.062Z,23.93
2019-02-18T17:29:01.876Z,24.37
2019-02-18T17:31:33.310Z,25.87
2019-02-18T17:34:04.024Z,23.73
2019-02-18T17:36:35.979Z,25.70
2019-02-18T17:39:06.950Z,22.40
2019-02-18T17:41:37.102Z,20.37
2019-02-18T17:44:07.002Z,20.30
2019-02-18T17:46:40.030Z,21.23
2019-02-18T17:49:09.586Z,20.97
2019-02-18T17:51:40.605Z,18.77
2019-02-18T17:54:11.749Z,19.95
2019-02-18T17:56:41.189Z,19.73
2019-02-18T17:59:11.419Z,19.10
2019-02-18T18:01:41.183Z,19.63
2019-02-18T18:04:12.257Z,18.20
2019-02-18T18:06:42.258Z,18.60
2019-02-18T18:09:15.300Z,19.57
2019-02-18T18:11:56.093Z,19.03
2019-02-18T18:14:26.995Z,17.90
2019-02-18T18:16:59.167Z,16.93
2019-02-18T18:19:31.056Z,16.13
2019-02-18T18:22:02.842Z,17.00
2019-02-18T18:24:34.675Z,18.50
2019-02-18T18:27:07.244Z,17.70
2019-02-18T18:29:37.353Z,18.50
2019-02-18T18:32:07.557Z,17.60
2019-02-18T18:34:38.242Z,18.57
2019-02-18T18:37:10.343Z,21.53
2019-02-18T18:39:45.801Z,20.30
2019-02-18T18:42:17.240Z,21.20
2019-02-18T18:44:47.824Z,26.13
2019-02-18T18:47:22.117Z,25.62
2019-02-18T18:49:52.213Z,34.40
2019-02-18T18:52:21.806Z,41.98
2019-02-18T18:54:51.498Z,60.33
2019-02-18T18:57:22.261Z,29.75
2019-02-18T18:59:55.925Z,24.90
2019-02-18T19:02:26.057Z,32.93
2019-02-18T19:04:56.297Z,114.87
2019-02-18T19:07:27.033Z,85.47
2019-02-18T19:09:58.186Z,45.90
2019-02-18T19:12:28.119Z,23.22
2019-02-18T19:14:58.399Z,26.67
2019-02-18T19:17:29.988Z,25.73
2019-02-18T19:20:01.489Z,24.53
2019-02-18T19:22:33.237Z,38.88
2019-02-18T19:25:02.865Z,32.83
2019-02-18T19:27:34.889Z,26.05
2019-02-18T19:30:05.319Z,26.77
2019-02-18T19:32:35.503Z,35.52
2019-02-18T19:35:07.517Z,33.28
2019-02-18T19:37:37.119Z,26.43
2019-02-18T19:40:09.167Z,23.93
2019-02-18T19:42:38.653Z,26.13
2019-02-18T19:45:10.395Z,28.33
2019-02-18T19:47:40.503Z,25.30
2019-02-18T19:50:11.401Z,24.13
2019-02-18T19:52:41.381Z,25.07
2019-02-18T19:55:11.561Z,26.40
2019-02-18T19:57:41.007Z,29.17
2019-02-18T20:00:12.448Z,33.30
2019-02-18T20:02:41.840Z,42.20
2019-02-18T20:05:11.509Z,37.10
2019-02-18T20:07:44.060Z,28.57
2019-02-18T20:10:13.970Z,26.95
2019-02-18T20:12:44.273Z,26.53
2019-02-18T20:15:14.680Z,27.83
2019-02-18T20:17:44.382Z,26.23
2019-02-18T20:20:14.041Z,24.60
2019-02-18T20:22:46.439Z,27.53
2019-02-18T20:25:20.504Z,25.82
2019-02-18T20:27:51.629Z,24.47
2019-02-18T20:30:21.766Z,24.77
2019-02-18T20:32:51.837Z,25.00
2019-02-18T20:35:26.708Z,26.85
2019-02-18T20:37:56.897Z,25.30
2019-02-18T20:40:28.871Z,23.10
2019-02-18T20:43:04.392Z,21.13
2019-02-18T20:45:36.258Z,20.70
2019-02-18T20:48:05.411Z,19.73
2019-02-18T20:50:37.541Z,19.20
2019-02-18T20:53:08.281Z,18.83
2019-02-18T20:55:37.954Z,18.13
2019-02-18T20:58:08.400Z,20.50
2019-02-18T21:00:38.071Z,17.87
2019-02-18T21:03:08.108Z,16.63
2019-02-18T21:05:37.982Z,18.53
2019-02-18T21:08:09.615Z,18.63
2019-02-18T21:10:40.204Z,17.47
2019-02-18T21:13:11.825Z,19.17
2019-02-18T21:15:41.429Z,17.87
2019-02-18T21:18:11.985Z,17.50
2019-02-18T21:20:42.009Z,17.57
2019-02-18T21:23:12.081Z,16.60
2019-02-18T21:25:44.094Z,16.80
2019-02-18T21:28:14.757Z,17.23
2019-02-18T21:30:44.357Z,15.90
2019-02-18T21:33:14.059Z,16.60
2019-02-18T21:35:43.820Z,18.10
2019-02-18T21:38:14.575Z,19.73
2019-02-18T21:40:47.169Z,19.80
2019-02-18T21:43:20.088Z,19.05
2019-02-18T21:45:49.556Z,16.63
2019-02-18T21:48:20.104Z,16.10
2019-02-18T21:50:50.784Z,16.30
2019-02-18T21:53:22.913Z,15.13
2019-02-18T21:55:52.411Z,14.90
2019-02-18T21:58:25.353Z,15.50
2019-02-18T22:00:54.695Z,14.67
2019-02-18T22:03:27.082Z,15.38
2019-02-18T22:05:56.522Z,13.93
2019-02-18T22:08:25.906Z,15.63
2019-02-18T22:10:56.450Z,15.00
2019-02-18T22:13:28.807Z,23.03
2019-02-18T22:15:58.206Z,30.27
2019-02-18T22:18:27.814Z,28.17
2019-02-18T22:20:58.224Z,22.05
2019-02-18T22:23:27.781Z,20.20
2019-02-18T22:25:57.160Z,18.40
2019-02-18T22:28:27.230Z,18.50
2019-02-18T22:30:56.612Z,15.20
2019-02-18T22:33:30.449Z,15.73
2019-02-18T22:36:01.275Z,14.30
2019-02-18T22:38:30.966Z,14.77
2019-02-18T22:41:03.181Z,13.93
2019-02-18T22:43:33.653Z,13.98
2019-02-18T22:46:03.744Z,13.50
2019-02-18T22:48:36.519Z,14.10
2019-02-18T22:51:07.309Z,12.83
2019-02-18T22:53:36.688Z,12.27
2019-02-18T22:56:07.144Z,11.90
2019-02-18T22:58:36.614Z,12.47
2019-02-18T23:01:08.489Z,12.10
2019-02-18T23:03:39.039Z,12.90
2019-02-18T23:06:09.859Z,13.33
2019-02-18T23:08:39.878Z,14.17
2019-02-18T23:11:10.252Z,12.67
2019-02-18T23:13:39.694Z,12.17
2019-02-18T23:16:09.125Z,12.82
2019-02-18T23:18:38.542Z,12.47
2019-02-18T23:21:08.013Z,12.00
2019-02-18T23:23:37.414Z,12.07
2019-02-18T23:26:07.357Z,11.23
2019-02-18T23:28:36.745Z,11.57
2019-02-18T23:31:06.140Z,11.73
2019-02-18T23:33:35.553Z,10.80
2019-02-18T23:36:06.232Z,11.90
2019-02-18T23:38:38.151Z,11.00
2019-02-18T23:41:09.028Z,10.40
2019-02-18T23:43:39.602Z,10.87
2019-02-18T23:46:09.376Z,10.83
2019-02-18T23:48:41.084Z,11.43
2019-02-18T23:51:13.503Z,10.87
2019-02-18T23:53:43.822Z,11.00
2019-02-18T23:56:15.015Z,10.87
2019-02-18T23:58:44.796Z,9.80
